createdAt,value
2018-12-05T00:00:00.064Z,5.30
2018-12-05T00:02:28.290Z,4.97
2018-12-05T00:04:55.815Z,5.17
2018-12-05T00:07:23.443Z,5.17
2018-12-05T00:09:51.192Z,6.83
2018-12-05T00:12:19.027Z,7.00
2018-12-05T00:14:46.654Z,8.33
2018-12-05T00:17:14.223Z,8.13
2018-12-05T00:19:41.774Z,9.70
2018-12-05T00:22:09.334Z,9.43
2018-12-05T00:24:36.870Z,7.97
2018-12-05T00:27:04.420Z,8.20
2018-12-05T00:29:31.967Z,7.90
2018-12-05T00:31:59.528Z,8.33
2018-12-05T00:34:27.070Z,7.47
2018-12-05T00:36:54.609Z,8.10
2018-12-05T00:39:22.139Z,7.43
2018-12-05T00:41:49.745Z,7.97
2018-12-05T00:44:17.340Z,7.77
2018-12-05T00:46:44.921Z,9.63
2018-12-05T00:49:12.489Z,7.83
2018-12-05T00:51:40.070Z,8.80
2018-12-05T00:54:07.692Z,8.17
2018-12-05T00:56:35.223Z,6.83
2018-12-05T00:59:02.801Z,8.83
2018-12-05T01:01:31.750Z,7.37
2018-12-05T01:03:59.452Z,7.17
2018-12-05T01:06:26.998Z,6.83
2018-12-05T01:08:54.667Z,6.90
2018-12-05T01:11:22.274Z,7.47
2018-12-05T01:13:49.854Z,7.47
2018-12-05T01:16:17.530Z,7.90
2018-12-05T01:18:45.563Z,7.30
2018-12-05T01:21:13.205Z,7.53
2018-12-05T01:23:40.779Z,7.17
2018-12-05T01:26:08.343Z,6.33
2018-12-05T01:28:35.857Z,6.97
2018-12-05T01:31:03.411Z,7.30
2018-12-05T01:33:30.950Z,7.10
2018-12-05T01:35:58.875Z,7.03
2018-12-05T01:38:26.462Z,6.37
2018-12-05T01:40:53.985Z,8.80
2018-12-05T01:43:23.521Z,7.57
2018-12-05T01:45:51.624Z,6.90
2018-12-05T01:48:20.005Z,6.97
2018-12-05T01:50:47.565Z,6.67
2018-12-05T01:53:15.124Z,7.43
2018-12-05T01:55:42.793Z,6.10
2018-12-05T01:58:10.349Z,7.00
2018-12-05T02:00:38.130Z,6.73
2018-12-05T02:03:06.196Z,6.60
2018-12-05T02:05:33.827Z,7.20
2018-12-05T02:08:01.348Z,7.10
2018-12-05T02:10:28.867Z,7.17
2018-12-05T02:12:57.114Z,7.40
2018-12-05T02:15:24.630Z,7.83
2018-12-05T02:17:52.228Z,7.50
2018-12-05T02:20:19.892Z,7.63
2018-12-05T02:22:47.632Z,7.60
2018-12-05T02:25:15.154Z,7.03
2018-12-05T02:27:42.712Z,7.10
2018-12-05T02:30:10.298Z,6.70
2018-12-05T02:32:37.830Z,7.03
2018-12-05T02:35:05.717Z,7.20
2018-12-05T02:37:34.095Z,7.10
2018-12-05T02:40:01.655Z,7.50
2018-12-05T02:42:29.307Z,7.97
2018-12-05T02:44:57.492Z,7.50
2018-12-05T02:47:25.215Z,6.90
2018-12-05T02:49:52.798Z,7.73
2018-12-05T02:52:20.313Z,7.23
2018-12-05T02:54:47.910Z,7.50
2018-12-05T02:57:15.479Z,7.33
2018-12-05T02:59:43.208Z,8.23
2018-12-05T03:02:10.725Z,8.23
2018-12-05T03:04:38.485Z,7.80
2018-12-05T03:07:06.127Z,7.83
2018-12-05T03:09:33.832Z,7.60
2018-12-05T03:12:01.472Z,7.43
2018-12-05T03:14:29.644Z,7.97
2018-12-05T03:16:57.393Z,7.40
2018-12-05T03:19:25.732Z,7.97
2018-12-05T03:21:53.364Z,7.90
2018-12-05T03:24:21.097Z,7.57
2018-12-05T03:26:49.064Z,7.80
2018-12-05T03:29:16.625Z,7.90
2018-12-05T03:31:44.202Z,8.33
2018-12-05T03:34:11.932Z,7.47
2018-12-05T03:36:39.711Z,8.13
2018-12-05T03:39:08.404Z,7.03
2018-12-05T03:41:36.376Z,7.83
2018-12-05T03:44:05.157Z,7.43
2018-12-05T03:46:32.934Z,8.03
2018-12-05T03:49:00.490Z,7.27
2018-12-05T03:51:27.997Z,7.20
2018-12-05T03:53:55.579Z,7.07
2018-12-05T03:56:24.059Z,7.60
2018-12-05T03:58:52.158Z,7.50
2018-12-05T04:01:19.728Z,7.67
2018-12-05T04:03:47.308Z,7.67
2018-12-05T04:06:14.858Z,7.53
2018-12-05T04:08:42.444Z,7.57
2018-12-05T04:11:10.049Z,6.97
2018-12-05T04:13:37.709Z,7.57
2018-12-05T04:16:05.254Z,7.73
2018-12-05T04:18:32.830Z,7.33
2018-12-05T04:21:00.447Z,7.57
2018-12-05T04:23:27.972Z,7.40
2018-12-05T04:25:56.325Z,7.87
2018-12-05T04:28:23.918Z,7.00
2018-12-05T04:30:51.481Z,7.40
2018-12-05T04:33:19.007Z,7.07
2018-12-05T04:35:47.457Z,7.60
2018-12-05T04:38:14.975Z,7.50
2018-12-05T04:40:42.633Z,7.03
2018-12-05T04:43:10.196Z,7.57
2018-12-05T04:45:37.781Z,7.03
2018-12-05T04:48:05.537Z,8.53
2018-12-05T04:50:34.477Z,6.97
2018-12-05T04:53:02.597Z,7.73
2018-12-05T04:55:30.415Z,7.47
2018-12-05T04:57:57.957Z,7.97
2018-12-05T05:00:25.545Z,6.87
2018-12-05T05:02:53.977Z,6.87
2018-12-05T05:05:21.520Z,6.83
2018-12-05T05:07:49.043Z,6.80
2018-12-05T05:10:16.638Z,6.80
2018-12-05T05:12:44.195Z,7.33
2018-12-05T05:15:12.494Z,7.57
2018-12-05T05:17:40.023Z,9.57
2018-12-05T05:20:07.612Z,10.97
2018-12-05T05:22:35.127Z,9.83
2018-12-05T05:25:02.711Z,8.90
2018-12-05T05:27:31.702Z,9.97
2018-12-05T05:29:59.258Z,9.53
2018-12-05T05:32:26.845Z,12.13
2018-12-05T05:34:54.388Z,12.17
2018-12-05T05:37:21.985Z,9.63
2018-12-05T05:39:49.512Z,9.33
2018-12-05T05:42:17.105Z,8.77
2018-12-05T05:44:44.654Z,8.57
2018-12-05T05:47:12.760Z,8.33
2018-12-05T05:49:41.318Z,8.23
2018-12-05T05:52:08.876Z,8.57
2018-12-05T05:54:36.429Z,7.90
2018-12-05T05:57:04.032Z,7.80
2018-12-05T05:59:31.646Z,8.07
2018-12-05T06:01:59.253Z,14.27
2018-12-05T06:04:26.813Z,16.43
2018-12-05T06:06:54.346Z,9.27
2018-12-05T06:09:22.018Z,8.23
2018-12-05T06:11:49.902Z,8.47
2018-12-05T06:14:17.538Z,8.37
2018-12-05T06:16:45.822Z,7.90
2018-12-05T06:19:13.504Z,8.30
2018-12-05T06:21:41.030Z,7.97
2018-12-05T06:24:08.832Z,8.40
2018-12-05T06:26:36.441Z,8.90
2018-12-05T06:29:03.990Z,7.57
2018-12-05T06:31:31.579Z,7.53
2018-12-05T06:33:59.349Z,8.00
2018-12-05T06:36:26.906Z,8.93
2018-12-05T06:38:54.428Z,16.17
2018-12-05T06:41:21.963Z,12.27
2018-12-05T06:43:49.614Z,13.57
2018-12-05T06:46:17.134Z,10.40
2018-12-05T06:48:44.692Z,10.17
2018-12-05T06:51:12.219Z,10.07
2018-12-05T06:53:40.029Z,10.23
2018-12-05T06:56:07.640Z,9.13
2018-12-05T06:58:35.305Z,10.80
2018-12-05T07:01:02.886Z,10.13
2018-12-05T07:03:30.443Z,10.27
2018-12-05T07:05:58.044Z,10.20
2018-12-05T07:08:25.628Z,11.07
2018-12-05T07:10:53.153Z,12.80
2018-12-05T07:13:20.867Z,11.63
2018-12-05T07:15:48.435Z,10.10
2018-12-05T07:18:16.073Z,10.50
2018-12-05T07:20:43.950Z,10.30
2018-12-05T07:23:11.639Z,8.90
2018-12-05T07:25:39.176Z,8.70
2018-12-05T07:28:06.790Z,8.87
2018-12-05T07:30:35.506Z,10.53
2018-12-05T07:33:03.037Z,8.97
2018-12-05T07:35:30.594Z,9.30
2018-12-05T07:37:58.155Z,10.37
2018-12-05T07:40:26.592Z,9.77
2018-12-05T07:42:54.141Z,9.93
2018-12-05T07:45:21.889Z,9.97
2018-12-05T07:47:49.504Z,9.57
2018-12-05T07:50:17.109Z,9.83
2018-12-05T07:52:44.949Z,8.37
2018-12-05T07:55:12.648Z,8.93
2018-12-05T07:57:40.217Z,8.87
2018-12-05T08:00:08.095Z,9.67
2018-12-05T08:02:35.686Z,9.37
2018-12-05T08:05:03.625Z,9.60
2018-12-05T08:07:31.206Z,9.83
2018-12-05T08:09:58.930Z,9.23
2018-12-05T08:12:26.455Z,8.60
2018-12-05T08:14:54.755Z,10.27
2018-12-05T08:17:22.298Z,10.70
2018-12-05T08:19:49.860Z,9.97
2018-12-05T08:22:17.386Z,9.37
2018-12-05T08:24:45.124Z,8.63
2018-12-05T08:27:12.785Z,9.33
2018-12-05T08:29:40.350Z,10.57
2018-12-05T08:32:07.940Z,9.13
2018-12-05T08:34:35.978Z,10.40
2018-12-05T08:37:03.733Z,10.90
2018-12-05T08:39:31.330Z,9.93
2018-12-05T08:41:58.856Z,10.00
2018-12-05T08:44:26.874Z,10.53
2018-12-05T08:46:54.893Z,11.60
2018-12-05T08:49:22.472Z,12.37
2018-12-05T08:51:50.123Z,11.13
2018-12-05T08:54:21.124Z,12.03
2018-12-05T08:56:47.371Z,11.37
2018-12-05T08:59:15.444Z,11.63
2018-12-05T09:01:43.147Z,13.70
2018-12-05T09:04:10.979Z,12.70
2018-12-05T09:06:38.666Z,11.80
2018-12-05T09:09:08.040Z,14.13
2018-12-05T09:11:35.664Z,14.50
2018-12-05T09:14:03.247Z,14.00
2018-12-05T09:16:31.254Z,13.00
2018-12-05T09:18:58.989Z,11.97
2018-12-05T09:21:27.506Z,12.27
2018-12-05T09:23:55.037Z,12.10
2018-12-05T09:26:23.208Z,12.90
2018-12-05T09:28:57.013Z,13.10
2018-12-05T09:31:20.671Z,13.40
2018-12-05T09:33:48.289Z,12.30
2018-12-05T09:36:16.437Z,12.80
2018-12-05T09:38:45.661Z,12.17
2018-12-05T09:41:13.205Z,11.90
2018-12-05T09:43:41.104Z,11.93
2018-12-05T09:46:09.412Z,12.40
2018-12-05T09:48:37.123Z,11.53
2018-12-05T09:51:04.721Z,13.30
2018-12-05T09:53:32.594Z,12.57
2018-12-05T09:56:00.413Z,13.57
2018-12-05T09:58:28.853Z,12.40
2018-12-05T10:00:56.544Z,12.93
2018-12-05T10:03:24.118Z,12.77
2018-12-05T10:05:51.675Z,13.70
2018-12-05T10:08:19.640Z,13.00
2018-12-05T10:10:47.876Z,13.20
2018-12-05T10:13:15.414Z,13.20
2018-12-05T10:15:43.207Z,13.70
2018-12-05T10:18:10.764Z,12.60
2018-12-05T10:20:38.357Z,14.47
2018-12-05T10:23:05.907Z,12.77
2018-12-05T10:25:33.653Z,13.50
2018-12-05T10:28:01.220Z,12.73
2018-12-05T10:30:28.874Z,12.03
2018-12-05T10:32:56.475Z,11.37
2018-12-05T10:35:24.764Z,12.20
2018-12-05T10:37:52.519Z,10.87
2018-12-05T10:40:20.133Z,11.00
2018-12-05T10:42:47.801Z,9.77
2018-12-05T10:45:15.435Z,12.07
2018-12-05T10:47:43.612Z,12.13
2018-12-05T10:50:11.174Z,11.90
2018-12-05T10:52:38.721Z,10.63
2018-12-05T10:55:06.401Z,10.53
2018-12-05T10:57:33.990Z,9.77
2018-12-05T11:00:01.557Z,9.40
2018-12-05T11:02:34.831Z,10.27
2018-12-05T11:08:14.167Z,9.07
2018-12-05T11:10:47.231Z,9.60
2018-12-05T11:13:20.511Z,9.30
2018-12-05T11:15:55.095Z,9.17
2018-12-05T11:18:28.286Z,9.53
2018-12-05T11:21:01.386Z,8.23
2018-12-05T11:23:34.911Z,9.07
2018-12-05T11:26:05.594Z,7.73
2018-12-05T11:28:33.217Z,7.60
2018-12-05T11:31:00.836Z,7.50
2018-12-05T11:33:28.477Z,8.13
2018-12-05T11:35:56.090Z,8.23
2018-12-05T11:38:28.697Z,7.53
2018-12-05T11:40:56.381Z,7.60
2018-12-05T11:43:24.055Z,8.20
2018-12-05T11:45:51.737Z,9.20
2018-12-05T11:48:19.454Z,8.43
2018-12-05T11:50:47.013Z,8.60
2018-12-05T11:53:14.605Z,8.43
2018-12-05T11:55:42.176Z,9.50
2018-12-05T11:58:09.745Z,8.37
2018-12-05T12:00:37.357Z,8.47
2018-12-05T12:03:05.053Z,8.83
2018-12-05T12:05:32.767Z,10.33
2018-12-05T12:08:00.351Z,9.10
2018-12-05T12:10:33.832Z,9.90
2018-12-05T12:13:04.837Z,9.80
2018-12-05T12:15:32.913Z,10.20
2018-12-05T12:18:00.773Z,10.33
2018-12-05T12:20:28.379Z,11.10
2018-12-05T12:22:56.000Z,10.63
2018-12-05T12:25:23.906Z,10.20
2018-12-05T12:27:51.498Z,10.33
2018-12-05T12:30:19.265Z,10.10
2018-12-05T12:32:46.828Z,10.33
2018-12-05T12:35:14.414Z,8.97
2018-12-05T12:37:42.060Z,8.57
2018-12-05T12:40:09.664Z,8.73
2018-12-05T12:42:37.195Z,10.17
2018-12-05T12:45:06.367Z,7.60
2018-12-05T12:47:34.980Z,9.10
2018-12-05T12:50:02.779Z,8.40
2018-12-05T12:52:30.310Z,7.43
2018-12-05T12:54:57.972Z,9.07
2018-12-05T12:57:25.648Z,9.00
2018-12-05T12:59:54.429Z,7.47
2018-12-05T13:02:23.596Z,7.33
2018-12-05T13:04:51.390Z,8.07
2018-12-05T13:07:19.053Z,10.03
2018-12-05T13:09:46.712Z,9.00
2018-12-05T13:12:16.258Z,7.87
2018-12-05T13:14:43.870Z,9.10
2018-12-05T13:17:11.531Z,8.80
2018-12-05T13:19:39.117Z,8.63
2018-12-05T13:22:08.034Z,9.10
2018-12-05T13:24:35.658Z,8.77
2018-12-05T13:27:03.205Z,8.87
2018-12-05T13:29:30.825Z,8.10
2018-12-05T13:31:58.477Z,9.27
2018-12-05T13:34:26.210Z,9.13
2018-12-05T13:36:53.976Z,8.57
2018-12-05T13:39:21.524Z,8.10
2018-12-05T13:41:49.205Z,8.07
2018-12-05T13:44:16.813Z,8.27
2018-12-05T13:46:44.419Z,8.17
2018-12-05T13:49:11.943Z,8.50
2018-12-05T13:51:39.620Z,8.30
2018-12-05T13:54:07.285Z,8.70
2018-12-05T13:56:34.978Z,8.50
2018-12-05T13:59:02.689Z,8.83
2018-12-05T14:01:30.351Z,8.47
2018-12-05T14:03:57.921Z,8.27
2018-12-05T14:06:25.474Z,9.00
2018-12-05T14:08:53.117Z,7.30
2018-12-05T14:11:20.689Z,8.40
2018-12-05T14:13:48.336Z,8.47
2018-12-05T14:16:15.895Z,8.90
2018-12-05T14:18:43.504Z,7.47
2018-12-05T14:21:11.174Z,8.67
2018-12-05T14:23:39.151Z,7.77
2018-12-05T14:26:06.706Z,7.67
2018-12-05T14:28:35.125Z,7.80
2018-12-05T14:31:02.774Z,7.90
2018-12-05T14:33:30.406Z,7.67
2018-12-05T14:35:58.005Z,7.83
2018-12-05T14:38:25.693Z,9.10
2018-12-05T14:40:53.297Z,9.40
2018-12-05T14:43:20.874Z,8.97
2018-12-05T14:45:48.490Z,7.70
2018-12-05T14:48:16.965Z,8.70
2018-12-05T14:50:44.480Z,8.73
2018-12-05T14:53:12.183Z,8.27
2018-12-05T14:55:40.065Z,8.40
2018-12-05T14:58:07.627Z,8.70
2018-12-05T15:00:35.520Z,8.33
2018-12-05T15:03:04.601Z,9.17
2018-12-05T15:05:32.240Z,9.70
2018-12-05T15:08:00.092Z,9.63
2018-12-05T15:10:27.672Z,10.00
2018-12-05T15:12:55.326Z,11.40
2018-12-05T15:15:23.001Z,11.53
2018-12-05T15:17:50.701Z,10.97
2018-12-05T15:20:18.433Z,11.30
2018-12-05T15:25:25.416Z,11.37
2018-12-05T15:27:54.000Z,9.10
2018-12-05T15:30:22.492Z,9.77
2018-12-05T15:32:50.071Z,11.07
2018-12-05T15:35:17.654Z,9.43
2018-12-05T15:37:45.307Z,9.10
2018-12-05T15:40:12.972Z,9.77
2018-12-05T15:42:41.329Z,9.50
2018-12-05T15:45:09.260Z,9.87
2018-12-05T15:47:36.925Z,9.63
2018-12-05T15:50:06.280Z,8.93
2018-12-05T15:52:33.850Z,9.20
2018-12-05T15:55:01.850Z,9.47
2018-12-05T15:57:29.621Z,9.53
2018-12-05T15:59:57.380Z,10.27
2018-12-05T16:02:24.948Z,10.07
2018-12-05T16:04:52.469Z,9.83
2018-12-05T16:07:20.065Z,10.47
2018-12-05T16:09:47.613Z,11.33
2018-12-05T16:12:15.320Z,11.30
2018-12-05T16:14:43.415Z,10.67
2018-12-05T16:17:12.559Z,10.67
2018-12-05T16:19:40.574Z,9.00
2018-12-05T16:22:08.228Z,8.97
2018-12-05T16:24:35.893Z,9.97
2018-12-05T16:27:05.266Z,9.63
2018-12-05T16:29:32.882Z,9.97
2018-12-05T16:32:00.653Z,10.37
2018-12-05T16:34:29.418Z,11.63
2018-12-05T16:36:57.887Z,12.03
2018-12-05T16:39:25.556Z,11.60
2018-12-05T16:41:53.123Z,12.10
2018-12-05T16:44:20.708Z,12.37
2018-12-05T16:46:48.338Z,18.63
2018-12-05T16:49:15.961Z,13.90
2018-12-05T16:51:43.758Z,11.80
2018-12-05T16:54:12.166Z,11.33
2018-12-05T16:56:40.764Z,13.13
2018-12-05T16:59:08.490Z,11.90
2018-12-05T17:01:36.538Z,10.83
2018-12-05T17:04:04.846Z,11.83
2018-12-05T17:06:32.436Z,11.80
2018-12-05T17:09:01.458Z,12.43
2018-12-05T17:11:30.217Z,12.00
2018-12-05T17:13:57.876Z,11.63
2018-12-05T17:16:25.464Z,13.73
2018-12-05T17:18:53.139Z,16.43
2018-12-05T17:21:20.944Z,15.33
2018-12-05T17:23:48.561Z,17.00
2018-12-05T17:26:16.090Z,16.67
2018-12-05T17:28:45.211Z,15.37
2018-12-05T17:31:12.972Z,19.40
2018-12-05T17:33:40.497Z,16.43
2018-12-05T17:36:08.074Z,12.47
2018-12-05T17:38:35.784Z,14.97
2018-12-05T17:41:03.396Z,20.83
2018-12-05T17:43:30.946Z,19.67
2018-12-05T17:45:58.465Z,13.57
2018-12-05T17:48:26.075Z,11.87
2018-12-05T17:50:54.224Z,12.13
2018-12-05T17:53:21.904Z,12.73
2018-12-05T17:55:49.523Z,11.73
2018-12-05T17:58:17.077Z,11.23
2018-12-05T18:00:44.913Z,12.33
2018-12-05T18:03:12.464Z,11.73
2018-12-05T18:05:39.999Z,22.33
2018-12-05T18:08:07.640Z,35.13
2018-12-05T18:10:35.362Z,20.33
2018-12-05T18:13:02.883Z,13.53
2018-12-05T18:15:30.411Z,13.03
2018-12-05T18:17:58.021Z,13.43
2018-12-05T18:20:26.010Z,12.60
2018-12-05T18:22:53.553Z,12.23
2018-12-05T18:25:21.127Z,15.60
2018-12-05T18:27:48.656Z,13.40
2018-12-05T18:30:16.318Z,13.87
2018-12-05T18:32:43.865Z,12.87
2018-12-05T18:35:11.478Z,13.50
2018-12-05T18:37:39.198Z,13.80
2018-12-05T18:40:08.669Z,13.23
2018-12-05T18:42:36.562Z,14.20
2018-12-05T18:45:05.268Z,13.30
2018-12-05T18:47:32.926Z,12.90
2018-12-05T18:50:02.745Z,12.87
2018-12-05T18:52:30.334Z,13.00
2018-12-05T18:54:57.966Z,13.30
2018-12-05T18:57:25.688Z,12.60
2018-12-05T18:59:53.362Z,11.63
2018-12-05T19:02:21.126Z,11.63
2018-12-05T19:04:48.749Z,11.03
2018-12-05T19:07:16.334Z,12.07
2018-12-05T19:09:43.934Z,12.30
2018-12-05T19:12:11.506Z,11.07
2018-12-05T19:14:45.614Z,12.20
2018-12-05T19:17:13.191Z,11.67
2018-12-05T19:19:41.034Z,11.80
2018-12-05T19:22:08.589Z,12.60
2018-12-05T19:24:36.288Z,11.17
2018-12-05T19:27:04.201Z,11.77
2018-12-05T19:29:31.786Z,11.80
2018-12-05T19:31:59.483Z,9.80
2018-12-05T19:34:27.566Z,10.73
2018-12-05T19:36:55.176Z,12.40
2018-12-05T19:39:22.833Z,12.20
2018-12-05T19:41:50.653Z,10.87
2018-12-05T19:44:18.409Z,12.00
2018-12-05T19:46:45.975Z,11.40
2018-12-05T19:49:13.599Z,12.60
2018-12-05T19:51:41.192Z,11.47
2018-12-05T19:54:08.955Z,11.87
2018-12-05T19:56:36.546Z,10.13
2018-12-05T19:59:07.627Z,9.80
2018-12-05T20:01:35.650Z,10.37
2018-12-05T20:04:03.464Z,10.60
2018-12-05T20:06:31.123Z,8.70
2018-12-05T20:08:58.715Z,8.70
2018-12-05T20:11:26.261Z,9.37
2018-12-05T20:13:53.809Z,8.73
2018-12-05T20:16:22.427Z,9.47
2018-12-05T20:18:50.189Z,8.87
2018-12-05T20:21:17.958Z,8.13
2018-12-05T20:23:45.514Z,10.87
2018-12-05T20:26:13.045Z,12.27
2018-12-05T20:28:42.188Z,12.13
2018-12-05T20:31:10.139Z,12.63
2018-12-05T20:33:37.701Z,11.83
2018-12-05T20:36:05.433Z,12.47
2018-12-05T20:38:33.125Z,10.73
2018-12-05T20:41:00.687Z,12.20
2018-12-05T20:43:28.252Z,12.93
2018-12-05T20:45:55.810Z,11.80
2018-12-05T20:48:23.373Z,10.73
2018-12-05T20:50:51.134Z,10.30
2018-12-05T20:53:19.609Z,11.30
2018-12-05T20:55:48.731Z,9.97
2018-12-05T20:58:16.315Z,10.70
2018-12-05T21:00:44.034Z,10.07
2018-12-05T21:03:11.793Z,8.60
2018-12-05T21:05:39.415Z,8.90
2018-12-05T21:08:07.092Z,9.10
2018-12-05T21:10:34.992Z,8.30
2018-12-05T21:13:02.553Z,8.63
2018-12-05T21:15:30.640Z,9.03
2018-12-05T21:17:58.224Z,9.00
2018-12-05T21:20:25.783Z,9.57
2018-12-05T21:22:53.653Z,9.17
2018-12-05T21:25:21.364Z,9.37
2018-12-05T21:27:49.026Z,9.77
2018-12-05T21:30:16.711Z,9.93
2018-12-05T21:32:44.447Z,10.27
2018-12-05T21:35:12.132Z,10.53
2018-12-05T21:37:39.806Z,10.53
2018-12-05T21:40:07.321Z,10.30
2018-12-05T21:42:36.087Z,10.43
2018-12-05T21:45:04.882Z,9.60
2018-12-05T21:47:32.406Z,9.00
2018-12-05T21:50:00.031Z,8.50
2018-12-05T21:52:28.313Z,9.00
2018-12-05T21:54:55.902Z,9.00
2018-12-05T21:57:24.455Z,9.80
2018-12-05T21:59:52.023Z,9.23
2018-12-05T22:02:19.983Z,10.77
2018-12-05T22:04:47.845Z,9.43
2018-12-05T22:07:15.382Z,9.93
2018-12-05T22:09:42.925Z,9.83
2018-12-05T22:12:10.503Z,8.53
2018-12-05T22:14:38.631Z,9.67
2018-12-05T22:17:06.464Z,9.33
2018-12-05T22:19:34.369Z,9.20
2018-12-05T22:22:02.248Z,9.77
2018-12-05T22:24:30.185Z,9.30
2018-12-05T22:26:57.767Z,9.57
2018-12-05T22:29:25.332Z,10.10
2018-12-05T22:31:52.956Z,9.63
2018-12-05T22:34:21.190Z,9.90
2018-12-05T22:36:48.913Z,10.07
2018-12-05T22:39:16.532Z,10.27
2018-12-05T22:41:44.222Z,11.60
2018-12-05T22:44:11.988Z,11.43
2018-12-05T22:46:39.616Z,11.40
2018-12-05T22:49:07.223Z,10.73
2018-12-05T22:51:39.933Z,10.63
2018-12-05T22:54:07.521Z,9.33
2018-12-05T22:56:35.078Z,9.50
2018-12-05T22:59:02.633Z,9.00
2018-12-05T23:01:30.272Z,7.80
2018-12-05T23:03:57.998Z,7.57
2018-12-05T23:06:25.520Z,9.30
2018-12-05T23:08:53.115Z,8.40
2018-12-05T23:11:21.025Z,8.00
2018-12-05T23:13:48.644Z,7.67
2018-12-05T23:16:16.555Z,8.03
2018-12-05T23:18:44.074Z,7.93
2018-12-05T23:21:11.677Z,9.00
2018-12-05T23:23:39.300Z,8.33
2018-12-05T23:26:06.987Z,7.13
2018-12-05T23:28:34.783Z,7.57
2018-12-05T23:31:02.344Z,7.97
2018-12-05T23:33:29.860Z,7.87
2018-12-05T23:35:57.420Z,8.50
2018-12-05T23:38:25.574Z,7.97
2018-12-05T23:40:53.157Z,7.90
2018-12-05T23:43:20.769Z,7.13
2018-12-05T23:45:48.310Z,8.23
2018-12-05T23:48:15.894Z,8.37
2018-12-05T23:50:43.445Z,7.23
2018-12-05T23:53:11.157Z,7.80
2018-12-05T23:55:38.722Z,8.00
2018-12-05T23:58:06.278Z,8.10
